createdAt,value
2018-03-06T00:00:53.312Z,87.64
2018-03-06T00:01:53.292Z,87.92
2018-03-06T00:02:53.261Z,87.73
2018-03-06T00:03:53.221Z,87.64
2018-03-06T00:04:53.202Z,87.64
2018-03-06T00:05:53.162Z,88.02
2018-03-06T00:06:52.873Z,88.11
2018-03-06T00:07:53.125Z,88.3
2018-03-06T00:08:53.092Z,88.21
2018-03-06T00:09:53.915Z,88.21
2018-03-06T00:10:53.014Z,88.02
2018-03-06T00:11:53.016Z,88.21
2018-03-06T00:12:52.794Z,88.68
2018-03-06T00:13:53.824Z,88.4
2018-03-06T00:14:52.920Z,88.3
2018-03-06T00:15:53.108Z,88.4
2018-03-06T00:16:52.975Z,88.3
2018-03-06T00:17:52.546Z,88.21
2018-03-06T00:18:52.786Z,88.49
2018-03-06T00:19:52.754Z,88.96
2018-03-06T00:20:52.735Z,88.87
2018-03-06T00:21:53.514Z,88.68
2018-03-06T00:22:52.676Z,88.49
2018-03-06T00:23:52.364Z,88.87
2018-03-06T00:24:53.259Z,88.92
2018-03-06T00:25:52.571Z,88.64
2018-03-06T00:26:52.279Z,88.87
2018-03-06T00:27:52.245Z,88.78
2018-03-06T00:28:52.504Z,88.82
2018-03-06T00:29:52.564Z,89.01
2018-03-06T00:30:52.425Z,89.2
2018-03-06T00:31:53.511Z,89.2
2018-03-06T00:32:52.368Z,89.58
2018-03-06T00:33:52.332Z,89.3
2018-03-06T00:34:52.295Z,89.11
2018-03-06T00:35:53.111Z,89.39
2018-03-06T00:36:51.974Z,89.77
2018-03-06T00:37:52.216Z,89.39
2018-03-06T00:38:52.208Z,89.68
2018-03-06T00:39:52.817Z,89.58
2018-03-06T00:40:51.853Z,90.06
2018-03-06T00:41:52.084Z,89.96
2018-03-06T00:42:53.014Z,89.87
2018-03-06T00:43:52.028Z,90.25
2018-03-06T00:44:51.732Z,90.06
2018-03-06T00:45:52.996Z,90.06
2018-03-06T00:46:52.107Z,90.25
2018-03-06T00:47:51.918Z,90.25
2018-03-06T00:48:51.612Z,90.63
2018-03-06T00:49:52.535Z,90.34
2018-03-06T00:50:51.824Z,90.44
2018-03-06T00:51:51.799Z,90.25
2018-03-06T00:52:52.633Z,90.63
2018-03-06T00:53:51.459Z,90.72
2018-03-06T00:54:51.428Z,90.81
2018-03-06T00:55:51.398Z,90.81
2018-03-06T00:56:51.659Z,90.91
2018-03-06T00:57:51.602Z,90.63
2018-03-06T00:58:51.578Z,90.63
2018-03-06T00:59:52.490Z,90.44
2018-03-06T01:00:51.247Z,91.1
2018-03-06T01:01:51.214Z,90.91
2018-03-06T01:02:52.107Z,91
2018-03-06T01:03:51.440Z,91.57
2018-03-06T01:04:51.402Z,90.91
2018-03-06T01:05:51.364Z,91.19
2018-03-06T01:06:52.275Z,91.29
2018-03-06T01:07:51.033Z,91
2018-03-06T01:08:51.272Z,91.19
2018-03-06T01:09:51.256Z,91.48
2018-03-06T01:10:51.990Z,91.48
2018-03-06T01:11:51.174Z,91.29
2018-03-06T01:12:51.150Z,91.29
2018-03-06T01:13:51.934Z,91.19
2018-03-06T01:14:51.118Z,91.48
2018-03-06T01:15:51.045Z,91.76
2018-03-06T01:16:51.027Z,91.67
2018-03-06T01:17:51.698Z,91.86
2018-03-06T01:18:50.958Z,91.86
2018-03-06T01:19:50.947Z,91.67
2018-03-06T01:20:50.921Z,91.86
2018-03-06T01:21:51.557Z,91.76
2018-03-06T01:22:50.875Z,91.67
2018-03-06T01:23:50.842Z,92.05
2018-03-06T01:24:51.385Z,91.95
2018-03-06T01:25:50.780Z,92.05
2018-03-06T01:26:50.727Z,91.86
2018-03-06T01:27:50.714Z,91.95
2018-03-06T01:28:51.587Z,92.14
2018-03-06T01:29:50.623Z,92.33
2018-03-06T01:30:50.596Z,92.33
2018-03-06T01:31:51.281Z,92.71
2018-03-06T01:32:50.537Z,92.43
2018-03-06T01:33:50.508Z,92.05
2018-03-06T01:34:50.213Z,92.99
2018-03-06T01:35:50.455Z,92.99
2018-03-06T01:36:50.414Z,92.8
2018-03-06T01:37:51.321Z,92.99
2018-03-06T01:38:50.358Z,92.71
2018-03-06T01:39:50.060Z,93.18
2018-03-06T01:40:50.296Z,92.9
2018-03-06T01:41:51.136Z,92.94
2018-03-06T01:42:50.227Z,92.47
2018-03-06T01:43:50.200Z,93.46
2018-03-06T01:44:51.058Z,93.18
2018-03-06T01:45:50.139Z,92.9
2018-03-06T01:46:50.114Z,92.9
2018-03-06T01:47:50.789Z,92.9
2018-03-06T01:48:50.053Z,92.94
2018-03-06T01:49:50.021Z,92.85
2018-03-06T01:50:49.983Z,92.94
2018-03-06T01:51:50.697Z,92.66
2018-03-06T01:52:49.937Z,92.66
2018-03-06T01:53:49.908Z,93.32
2018-03-06T01:54:50.325Z,93.32
2018-03-06T01:55:49.836Z,92.94
2018-03-06T01:56:49.807Z,93.61
2018-03-06T01:57:51.204Z,93.51
2018-03-06T01:58:49.746Z,93.42
2018-03-06T01:59:49.446Z,93.42
2018-03-06T02:00:49.414Z,93.23
2018-03-06T02:01:50.293Z,93.7
2018-03-06T02:02:49.620Z,93.7
2018-03-06T02:03:49.581Z,93.51
2018-03-06T02:04:50.458Z,93.7
2018-03-06T02:05:49.531Z,93.42
2018-03-06T02:06:49.498Z,93.89
2018-03-06T02:07:49.201Z,94.27
2018-03-06T02:08:50.211Z,93.99
2018-03-06T02:09:49.407Z,93.61
2018-03-06T02:10:49.374Z,93.8
2018-03-06T02:11:50.318Z,94.46
2018-03-06T02:12:49.299Z,94.27
2018-03-06T02:13:49.280Z,94.46
2018-03-06T02:14:49.252Z,94.27
2018-03-06T02:15:49.781Z,93.99
2018-03-06T02:16:49.178Z,94.08
2018-03-06T02:17:49.152Z,94.18
2018-03-06T02:18:49.124Z,94.46
2018-03-06T02:19:49.915Z,94.74
2018-03-06T02:20:49.051Z,94.65
2018-03-06T02:21:49.032Z,94.56
2018-03-06T02:22:48.991Z,94.46
2018-03-06T02:23:49.889Z,94.74
2018-03-06T02:24:48.936Z,94.56
2018-03-06T02:25:48.910Z,94.84
2018-03-06T02:26:48.609Z,94.93
2018-03-06T02:27:48.842Z,94.93
2018-03-06T02:28:48.824Z,94.56
2018-03-06T02:29:48.783Z,95.21
2018-03-06T02:30:48.487Z,95.5
2018-03-06T02:31:48.739Z,95.31
2018-03-06T02:32:48.698Z,95.4
2018-03-06T02:33:48.669Z,95.59
2018-03-06T02:34:49.488Z,95.21
2018-03-06T02:35:48.596Z,95.4
2018-03-06T02:36:48.568Z,95.31
2018-03-06T02:37:48.834Z,95.12
2018-03-06T02:38:48.615Z,95.21
2018-03-06T02:39:48.491Z,95.69
2018-03-06T02:40:48.439Z,95.97
2018-03-06T02:41:49.077Z,95.78
2018-03-06T02:42:48.370Z,95.69
2018-03-06T02:43:48.345Z,95.59
2018-03-06T02:44:48.048Z,95.64
2018-03-06T02:45:48.285Z,95.78
2018-03-06T02:46:48.274Z,95.4
2018-03-06T02:47:48.217Z,95.64
2018-03-06T02:48:49.085Z,95.74
2018-03-06T02:49:48.279Z,95.83
2018-03-06T02:50:48.134Z,95.45
2018-03-06T02:51:48.095Z,96.02
2018-03-06T02:52:48.858Z,95.26
2018-03-06T02:53:47.765Z,96.21
2018-03-06T02:54:48.002Z,95.93
2018-03-06T02:55:48.455Z,96.12
2018-03-06T02:56:47.672Z,96.02
2018-03-06T02:57:47.640Z,95.74
2018-03-06T02:58:47.877Z,96.02
2018-03-06T02:59:47.834Z,95.83
2018-03-06T03:00:47.818Z,95.74
2018-03-06T03:01:47.569Z,95.74
2018-03-06T03:02:48.402Z,96.69
2018-03-06T03:03:47.454Z,96.5
2018-03-06T03:04:47.420Z,95.93
2018-03-06T03:05:47.654Z,96.4
2018-03-06T03:06:47.359Z,96.4
2018-03-06T03:07:47.327Z,96.5
2018-03-06T03:08:47.556Z,96.02
2018-03-06T03:09:47.528Z,96.5
2018-03-06T03:10:48.494Z,96.5
2018-03-06T03:11:47.476Z,96.12
2018-03-06T03:12:47.444Z,96.31
2018-03-06T03:13:48.320Z,96.59
2018-03-06T03:14:47.382Z,96.69
2018-03-06T03:15:47.343Z,95.93
2018-03-06T03:16:47.314Z,96.59
2018-03-06T03:17:48.126Z,96.02
2018-03-06T03:18:47.248Z,96.88
2018-03-06T03:19:48.603Z,96.88
2018-03-06T03:20:47.321Z,96.88
2018-03-06T03:21:47.842Z,96.88
2018-03-06T03:22:47.118Z,96.88
2018-03-06T03:23:47.109Z,96.88
2018-03-06T03:24:47.815Z,96.78
2018-03-06T03:25:47.025Z,96.97
2018-03-06T03:26:46.987Z,96.88
2018-03-06T03:27:47.723Z,96.59
2018-03-06T03:28:46.958Z,96.59
2018-03-06T03:29:46.914Z,96.5
2018-03-06T03:30:47.799Z,96.31
2018-03-06T03:31:46.847Z,96.78
2018-03-06T03:32:46.541Z,96.69
2018-03-06T03:33:46.507Z,96.78
2018-03-06T03:34:46.734Z,96.5
2018-03-06T03:35:46.712Z,96.97
2018-03-06T03:36:46.690Z,96.78
2018-03-06T03:37:47.093Z,96.69
2018-03-06T03:38:46.619Z,96.59
2018-03-06T03:39:46.595Z,96.59
2018-03-06T03:40:47.263Z,96.5
2018-03-06T03:41:46.514Z,96.5
2018-03-06T03:42:46.504Z,97.16
2018-03-06T03:43:47.257Z,97.16
2018-03-06T03:44:46.443Z,96.88
2018-03-06T03:45:46.402Z,97.16
2018-03-06T03:46:47.387Z,97.16
2018-03-06T03:47:46.324Z,97.34
2018-03-06T03:48:46.304Z,97.06
2018-03-06T03:49:47.151Z,96.97
2018-03-06T03:50:45.971Z,97.16
2018-03-06T03:51:46.207Z,97.16
2018-03-06T03:52:46.173Z,97.34
2018-03-06T03:53:47.077Z,97.34
2018-03-06T03:54:46.113Z,97.34
2018-03-06T03:55:45.813Z,96.97
2018-03-06T03:56:46.922Z,97.44
2018-03-06T03:57:46.010Z,97.63
2018-03-06T03:58:45.978Z,97.44
2018-03-06T03:59:45.975Z,97.16
2018-03-06T04:00:45.655Z,97.44
2018-03-06T04:01:45.888Z,97.53
2018-03-06T04:02:45.592Z,97.16
2018-03-06T04:03:45.560Z,97.06
2018-03-06T04:04:45.786Z,97.16
2018-03-06T04:05:45.498Z,97.82
2018-03-06T04:06:45.736Z,97.82
2018-03-06T04:07:45.433Z,97.91
2018-03-06T04:08:46.702Z,97.82
2018-03-06T04:09:45.645Z,97.82
2018-03-06T04:10:45.610Z,97.53
2018-03-06T04:11:45.591Z,97.34
2018-03-06T04:12:46.147Z,97.44
2018-03-06T04:13:45.527Z,97.63
2018-03-06T04:14:45.485Z,97.53
2018-03-06T04:15:46.331Z,97.53
2018-03-06T04:16:45.422Z,97.63
2018-03-06T04:17:45.377Z,97.53
2018-03-06T04:18:46.197Z,97.44
2018-03-06T04:19:45.326Z,97.63
2018-03-06T04:20:45.021Z,97.63
2018-03-06T04:21:45.248Z,97.72
2018-03-06T04:22:45.453Z,98.01
2018-03-06T04:23:44.926Z,97.63
2018-03-06T04:24:44.896Z,97.82
2018-03-06T04:25:45.877Z,97.91
2018-03-06T04:26:45.108Z,97.72
2018-03-06T04:27:45.065Z,98.01
2018-03-06T04:28:45.040Z,97.63
2018-03-06T04:29:45.833Z,97.63
2018-03-06T04:30:44.966Z,97.82
2018-03-06T04:31:44.940Z,97.82
2018-03-06T04:32:45.740Z,97.63
2018-03-06T04:33:44.876Z,97.72
2018-03-06T04:34:44.849Z,97.82
2018-03-06T04:35:45.756Z,97.63
2018-03-06T04:36:44.783Z,97.63
2018-03-06T04:37:44.483Z,97.63
2018-03-06T04:38:44.712Z,97.82
2018-03-06T04:39:44.680Z,98.2
2018-03-06T04:40:44.660Z,97.82
2018-03-06T04:41:44.614Z,97.63
2018-03-06T04:42:45.187Z,97.72
2018-03-06T04:43:44.292Z,97.53
2018-03-06T04:44:44.521Z,97.82
2018-03-06T04:45:44.503Z,97.82
2018-03-06T04:46:45.308Z,97.63
2018-03-06T04:47:44.164Z,97.91
2018-03-06T04:48:44.400Z,97.91
2018-03-06T04:49:45.337Z,98.01
2018-03-06T04:50:44.354Z,98.01
2018-03-06T04:51:44.303Z,97.82
2018-03-06T04:52:44.272Z,98.01
2018-03-06T04:53:45.015Z,98.1
2018-03-06T04:54:44.224Z,98.01
2018-03-06T04:55:44.174Z,98.1
2018-03-06T04:56:44.984Z,98.01
2018-03-06T04:57:44.111Z,98.2
2018-03-06T04:58:44.083Z,98.2
2018-03-06T04:59:44.052Z,98.1
2018-03-06T05:00:45.050Z,98.29
2018-03-06T05:01:44.002Z,98.39
2018-03-06T05:02:43.695Z,98.2
2018-03-06T05:03:43.942Z,98.2
2018-03-06T05:04:44.514Z,98.39
2018-03-06T05:05:43.865Z,98.1
2018-03-06T05:06:43.564Z,98.39
2018-03-06T05:07:44.573Z,98.2
2018-03-06T05:08:43.516Z,98.2
2018-03-06T05:09:43.763Z,98.39
2018-03-06T05:10:43.981Z,98.67
2018-03-06T05:11:43.673Z,98.48
2018-03-06T05:12:43.650Z,98.58
2018-03-06T05:13:44.539Z,98.48
2018-03-06T05:14:43.578Z,98.48
2018-03-06T05:15:43.550Z,98.58
2018-03-06T05:16:43.519Z,98.48
2018-03-06T05:17:44.233Z,98.48
2018-03-06T05:18:43.440Z,98.29
2018-03-06T05:19:43.416Z,98.2
2018-03-06T05:20:43.387Z,98.2
2018-03-06T05:21:44.228Z,98.48
2018-03-06T05:22:43.324Z,98.29
2018-03-06T05:23:43.282Z,98.2
2018-03-06T05:24:43.879Z,98.1
2018-03-06T05:25:43.364Z,98.2
2018-03-06T05:26:43.205Z,98.01
2018-03-06T05:27:43.157Z,98.29
2018-03-06T05:28:43.125Z,98.1
2018-03-06T05:29:43.095Z,98.29
2018-03-06T05:30:43.062Z,98.48
2018-03-06T05:31:43.040Z,98.29
2018-03-06T05:32:43.710Z,98.67
2018-03-06T05:33:42.991Z,98.2
2018-03-06T05:34:42.957Z,98.39
2018-03-06T05:35:42.927Z,98.01
2018-03-06T05:36:43.365Z,98.29
2018-03-06T05:37:42.853Z,98.29
2018-03-06T05:38:42.810Z,98.29
2018-03-06T05:39:42.776Z,98.2
2018-03-06T05:40:42.490Z,98.48
2018-03-06T05:41:42.737Z,98.39
2018-03-06T05:42:42.424Z,98.2
2018-03-06T05:43:42.662Z,98.39
2018-03-06T05:44:42.362Z,98.1
2018-03-06T05:45:42.333Z,98.39
2018-03-06T05:46:42.559Z,98.39
2018-03-06T05:47:42.549Z,98.2
2018-03-06T05:48:43.369Z,97.91
2018-03-06T05:49:42.463Z,98.1
2018-03-06T05:50:42.172Z,97.91
2018-03-06T05:51:43.302Z,98.2
2018-03-06T05:52:42.369Z,97.91
2018-03-06T05:53:42.347Z,98.2
2018-03-06T05:54:42.308Z,98.39
2018-03-06T05:55:43.150Z,98.2
2018-03-06T05:56:42.240Z,98.2
2018-03-06T05:57:42.227Z,98.01
2018-03-06T05:58:42.190Z,98.2
2018-03-06T05:59:42.856Z,98.1
2018-03-06T06:00:42.132Z,98.2
2018-03-06T06:01:42.099Z,97.91
2018-03-06T06:02:42.055Z,98.39
2018-03-06T06:03:42.399Z,98.29
2018-03-06T06:04:42.008Z,98.48
2018-03-06T06:05:41.965Z,98.48
2018-03-06T06:06:42.857Z,98.2
2018-03-06T06:07:41.637Z,98.39
2018-03-06T06:08:42.825Z,98.39
2018-03-06T06:09:41.883Z,98.1
2018-03-06T06:10:41.543Z,98.39
2018-03-06T06:11:42.018Z,98.2
2018-03-06T06:12:41.755Z,98.48
2018-03-06T06:13:41.703Z,98.01
2018-03-06T06:14:41.668Z,97.91
2018-03-06T06:15:41.632Z,98.34
2018-03-06T06:16:41.641Z,97.87
2018-03-06T06:17:41.578Z,98.15
2018-03-06T06:18:41.537Z,98.06
2018-03-06T06:19:41.510Z,98.06
2018-03-06T06:20:41.476Z,97.58
2018-03-06T06:21:41.199Z,97.68
2018-03-06T06:22:41.415Z,97.49
2018-03-06T06:23:41.422Z,97.87
2018-03-06T06:24:41.662Z,97.58
2018-03-06T06:25:41.989Z,97.96
2018-03-06T06:26:41.661Z,97.87
2018-03-06T06:27:41.513Z,97.3
2018-03-06T06:28:41.231Z,97.68
2018-03-06T06:29:40.950Z,97.58
2018-03-06T06:30:41.190Z,97.49
2018-03-06T06:31:41.136Z,97.49
2018-03-06T06:32:41.112Z,97.68
2018-03-06T06:33:41.078Z,97.49
2018-03-06T06:34:41.044Z,97.3
2018-03-06T06:35:41.014Z,97.39
2018-03-06T06:36:40.981Z,97.49
2018-03-06T06:37:40.952Z,97.11
2018-03-06T06:38:40.923Z,97.39
2018-03-06T06:39:40.894Z,97.3
2018-03-06T06:40:40.860Z,97.39
2018-03-06T06:41:40.581Z,97.11
2018-03-06T06:42:40.798Z,97.02
2018-03-06T06:43:40.766Z,96.54
2018-03-06T06:44:40.738Z,96.92
2018-03-06T06:45:40.719Z,96.73
2018-03-06T06:46:40.681Z,96.92
2018-03-06T06:47:40.647Z,96.78
2018-03-06T06:48:40.619Z,96.97
2018-03-06T06:49:40.586Z,96.4
2018-03-06T06:50:40.558Z,96.12
2018-03-06T06:51:40.870Z,96.4
2018-03-06T06:52:40.494Z,96.5
2018-03-06T06:53:40.217Z,96.5
2018-03-06T06:54:40.441Z,96.69
2018-03-06T06:55:40.403Z,96.5
2018-03-06T06:56:40.377Z,96.78
2018-03-06T06:57:40.350Z,95.93
2018-03-06T06:58:40.317Z,96.12
2018-03-06T06:59:40.283Z,96.31
2018-03-06T07:00:40.254Z,95.45
2018-03-06T07:01:40.226Z,95.36
2018-03-06T07:02:39.946Z,95.83
2018-03-06T07:03:39.916Z,95.83
2018-03-06T07:04:40.365Z,95.64
2018-03-06T07:05:39.857Z,95.36
2018-03-06T07:06:40.079Z,95.64
2018-03-06T07:07:40.046Z,95.36
2018-03-06T07:08:40.014Z,94.89
2018-03-06T07:09:39.741Z,94.89
2018-03-06T07:10:39.956Z,95.45
2018-03-06T07:11:39.929Z,95.22
2018-03-06T07:12:40.618Z,95.45
2018-03-06T07:13:40.279Z,94.98
2018-03-06T07:14:40.261Z,94.56
2018-03-06T07:15:40.153Z,94.65
2018-03-06T07:16:39.782Z,95.03
2018-03-06T07:17:39.755Z,94.93
2018-03-06T07:18:39.725Z,94.56
2018-03-06T07:19:39.693Z,94.74
2018-03-06T07:20:39.664Z,94.74
2018-03-06T07:21:39.638Z,94.84
2018-03-06T07:22:39.600Z,94.65
2018-03-06T07:23:39.570Z,94.08
2018-03-06T07:24:39.545Z,94.27
2018-03-06T07:25:39.672Z,94.18
2018-03-06T07:26:39.487Z,94.18
2018-03-06T07:27:39.455Z,93.99
2018-03-06T07:28:39.422Z,94.27
2018-03-06T07:29:39.417Z,94.27
2018-03-06T07:30:39.370Z,94.56
2018-03-06T07:31:39.337Z,94.37
2018-03-06T07:32:39.308Z,94.56
2018-03-06T07:33:39.277Z,94.56
2018-03-06T07:34:39.374Z,94.56
2018-03-06T07:35:39.216Z,93.99
2018-03-06T07:36:39.191Z,93.99
2018-03-06T07:37:39.163Z,94.18
2018-03-06T07:38:39.134Z,93.89
2018-03-06T07:39:39.106Z,93.99
2018-03-06T07:40:39.076Z,93.7
2018-03-06T07:41:39.049Z,93.7
2018-03-06T07:42:39.028Z,93.42
2018-03-06T07:43:38.987Z,93.32
2018-03-06T07:44:38.711Z,93.08
2018-03-06T07:45:38.930Z,93.37
2018-03-06T07:46:38.906Z,93.37
2018-03-06T07:47:38.871Z,93.27
2018-03-06T07:48:38.841Z,92.71
2018-03-06T07:49:38.819Z,93.08
2018-03-06T07:50:38.788Z,92.61
2018-03-06T07:51:38.758Z,93.08
2018-03-06T07:52:38.731Z,92.14
2018-03-06T07:53:38.699Z,92.18
2018-03-06T07:54:38.674Z,91.9
2018-03-06T07:55:38.398Z,91.99
2018-03-06T07:56:38.621Z,91.61
2018-03-06T07:57:38.341Z,91.14
2018-03-06T07:58:38.565Z,91.14
2018-03-06T07:59:38.287Z,91.05
2018-03-06T08:00:38.540Z,90.62
2018-03-06T08:01:38.482Z,90.43
2018-03-06T08:02:38.455Z,90.43
2018-03-06T08:03:38.428Z,89.86
2018-03-06T08:04:38.401Z,89.48
2018-03-06T08:05:38.380Z,89.2
2018-03-06T08:06:38.402Z,88.91
2018-03-06T08:07:38.392Z,88.62
2018-03-06T08:08:38.925Z,88.39
2018-03-06T08:09:38.275Z,88.1
2018-03-06T08:10:38.247Z,88.29
2018-03-06T08:11:38.272Z,87.82
2018-03-06T08:12:38.190Z,87.53
2018-03-06T08:13:38.177Z,86.96
2018-03-06T08:14:38.135Z,87.15
2018-03-06T08:15:38.111Z,86.68
2018-03-06T08:16:38.082Z,86.63
2018-03-06T08:17:38.062Z,86.24
2018-03-06T08:18:38.035Z,85.96
2018-03-06T08:19:38.007Z,86.05
2018-03-06T08:20:37.985Z,85.39
2018-03-06T08:21:37.960Z,85.2
2018-03-06T08:22:37.935Z,85.2
2018-03-06T08:23:37.906Z,84.44
2018-03-06T08:24:37.883Z,85.01
2018-03-06T08:25:37.855Z,84.06
2018-03-06T08:26:37.834Z,84.1
2018-03-06T08:27:37.808Z,84.01
2018-03-06T08:28:37.534Z,83.34
2018-03-06T08:29:37.759Z,83.72
2018-03-06T08:30:37.484Z,83.15
2018-03-06T08:31:37.711Z,82.96
2018-03-06T08:32:37.437Z,82.58
2018-03-06T08:33:37.659Z,82.1
2018-03-06T08:34:43.658Z,82.49
2018-03-06T08:35:37.612Z,82.01
2018-03-06T08:36:37.586Z,81.82
2018-03-06T08:37:37.686Z,80.96
2018-03-06T08:38:38.049Z,81.54
2018-03-06T08:39:37.510Z,81.63
2018-03-06T08:40:37.497Z,80.96
2018-03-06T08:41:37.464Z,80.96
2018-03-06T08:42:37.437Z,80.96
2018-03-06T08:43:37.415Z,80.77
2018-03-06T08:44:37.141Z,81.06
2018-03-06T08:45:37.367Z,80.77
2018-03-06T08:46:37.339Z,80.87
2018-03-06T08:47:37.596Z,81.06
2018-03-06T08:48:37.291Z,80.02
2018-03-06T08:49:37.267Z,80.4
2018-03-06T08:50:37.242Z,80.4
2018-03-06T08:51:37.222Z,80.58
2018-03-06T08:52:37.194Z,80.21
2018-03-06T08:53:37.173Z,79.83
2018-03-06T08:54:37.146Z,79.92
2018-03-06T08:55:37.118Z,79.2
2018-03-06T08:56:37.099Z,79.92
2018-03-06T08:57:37.075Z,79.58
2018-03-06T08:58:38.162Z,79.01
2018-03-06T08:59:37.025Z,79.39
2018-03-06T09:00:36.760Z,78.72
2018-03-06T09:01:36.981Z,79.01
2018-03-06T09:02:36.949Z,78.82
2018-03-06T09:03:37.235Z,78.34
2018-03-06T09:04:36.653Z,78.72
2018-03-06T09:05:36.879Z,78.34
2018-03-06T09:06:36.853Z,78.63
2018-03-06T09:07:36.595Z,78.16
2018-03-06T09:08:36.803Z,77.97
2018-03-06T09:09:36.535Z,77.87
2018-03-06T09:10:36.773Z,78.1
2018-03-06T09:11:36.732Z,77.91
2018-03-06T09:12:36.707Z,77.62
2018-03-06T09:13:36.687Z,77.24
2018-03-06T09:14:36.659Z,76.86
2018-03-06T09:15:36.387Z,76.76
2018-03-06T09:16:36.615Z,76.48
2018-03-06T09:17:36.589Z,76.29
2018-03-06T09:18:36.567Z,75.95
2018-03-06T09:19:36.543Z,75.38
2018-03-06T09:20:36.519Z,75.19
2018-03-06T09:21:36.933Z,74.62
2018-03-06T09:22:36.470Z,74.33
2018-03-06T09:23:36.447Z,74.14
2018-03-06T09:24:36.424Z,73.95
2018-03-06T09:25:36.151Z,73.47
2018-03-06T09:26:36.380Z,73.1
2018-03-06T09:27:36.357Z,72.65
2018-03-06T09:28:36.327Z,72.56
2018-03-06T09:29:36.308Z,72.46
2018-03-06T09:30:36.285Z,72.27
2018-03-06T09:31:36.280Z,71.98
2018-03-06T09:32:36.282Z,71.32
2018-03-06T09:33:36.224Z,71.61
2018-03-06T09:34:36.201Z,71.03
2018-03-06T09:35:36.168Z,71.03
2018-03-06T09:36:36.190Z,70.56
2018-03-06T09:37:36.124Z,70.47
2018-03-06T09:38:36.096Z,70.37
2018-03-06T09:39:36.076Z,70.02
2018-03-06T09:40:35.805Z,69.74
2018-03-06T09:41:36.038Z,69.54
2018-03-06T09:42:35.760Z,69.93
2018-03-06T09:43:35.986Z,69.07
2018-03-06T09:44:36.180Z,68.88
2018-03-06T09:45:35.940Z,68.69
2018-03-06T09:46:35.919Z,68.12
2018-03-06T09:47:35.895Z,68.21
2018-03-06T09:48:35.874Z,67.64
2018-03-06T09:49:35.852Z,67.68
2018-03-06T09:50:35.826Z,66.82
2018-03-06T09:51:35.803Z,67.1
2018-03-06T09:52:35.783Z,66.44
2018-03-06T09:53:35.760Z,66.44
2018-03-06T09:54:35.687Z,66.34
2018-03-06T09:55:35.543Z,65.67
2018-03-06T09:56:35.704Z,65.39
2018-03-06T09:57:35.747Z,65.48
2018-03-06T09:58:35.528Z,64.85
2018-03-06T09:59:35.630Z,64.85
2018-03-06T10:00:35.607Z,65.04
2018-03-06T10:01:35.581Z,63.99
2018-03-06T10:02:35.650Z,64.37
2018-03-06T10:03:36.051Z,63.99
2018-03-06T10:04:35.517Z,64.09
2018-03-06T10:05:35.493Z,63.6
2018-03-06T10:06:35.516Z,63.32
2018-03-06T10:07:35.453Z,63.32
2018-03-06T10:08:35.428Z,62.84
2018-03-06T10:09:35.412Z,62.88
2018-03-06T10:10:35.140Z,62.4
2018-03-06T10:11:35.123Z,62.11
2018-03-06T10:12:35.096Z,62.3
2018-03-06T10:13:35.433Z,62.49
2018-03-06T10:14:35.301Z,61.63
2018-03-06T10:15:35.283Z,61.73
2018-03-06T10:16:35.261Z,61.47
2018-03-06T10:17:35.437Z,60.9
2018-03-06T10:18:34.971Z,61.16
2018-03-06T10:19:35.933Z,61.1
2018-03-06T10:20:35.227Z,60.9
2018-03-06T10:21:35.401Z,60.33
2018-03-06T10:22:35.142Z,60.14
2018-03-06T10:23:35.142Z,60.24
2018-03-06T10:24:35.100Z,59.85
2018-03-06T10:25:35.074Z,59.95
2018-03-06T10:26:34.808Z,59.76
2018-03-06T10:27:35.032Z,59.66
2018-03-06T10:28:35.014Z,59.76
2018-03-06T10:29:34.992Z,59.95
2018-03-06T10:30:34.724Z,59.19
2018-03-06T10:31:34.958Z,59.28
2018-03-06T10:32:34.930Z,59.09
2018-03-06T10:33:34.911Z,58.99
2018-03-06T10:34:34.888Z,58.8
2018-03-06T10:35:34.872Z,58.9
2018-03-06T10:36:35.013Z,58.61
2018-03-06T10:37:34.991Z,58.42
2018-03-06T10:38:34.808Z,58.7
2018-03-06T10:39:34.787Z,58.51
2018-03-06T10:40:34.766Z,58.33
2018-03-06T10:41:34.750Z,58.51
2018-03-06T10:42:34.726Z,58.14
2018-03-06T10:43:34.706Z,58.23
2018-03-06T10:44:34.685Z,58.33
2018-03-06T10:45:34.664Z,58.23
2018-03-06T10:46:34.644Z,58.23
2018-03-06T10:47:34.629Z,57.75
2018-03-06T10:48:34.356Z,57.56
2018-03-06T10:49:34.597Z,57.85
2018-03-06T10:50:34.563Z,57.65
2018-03-06T10:51:34.566Z,57.85
2018-03-06T10:52:34.520Z,57.65
2018-03-06T10:53:34.500Z,57.75
2018-03-06T10:54:34.485Z,57.46
2018-03-06T10:55:34.459Z,58.04
2018-03-06T10:56:34.437Z,57.75
2018-03-06T10:57:34.417Z,57.75
2018-03-06T10:58:34.504Z,57.28
2018-03-06T10:59:34.129Z,57.37
2018-03-06T11:00:34.367Z,57.09
2018-03-06T11:01:34.343Z,57.18
2018-03-06T11:02:34.318Z,57.18
2018-03-06T11:03:34.295Z,57.4
2018-03-06T11:04:34.281Z,57.46
2018-03-06T11:05:34.251Z,57.37
2018-03-06T11:06:34.233Z,57.37
2018-03-06T11:07:34.211Z,57.46
2018-03-06T11:08:34.188Z,57.37
2018-03-06T11:09:34.170Z,57.4
2018-03-06T11:10:34.148Z,57.02
2018-03-06T11:11:34.138Z,57.11
2018-03-06T11:12:34.109Z,56.92
2018-03-06T11:13:34.090Z,56.54
2018-03-06T11:14:34.070Z,57.02
2018-03-06T11:15:34.054Z,56.54
2018-03-06T11:16:34.029Z,57.02
2018-03-06T11:17:34.008Z,56.06
2018-03-06T11:18:34.046Z,56.35
2018-03-06T11:19:33.970Z,56.35
2018-03-06T11:20:33.947Z,56.06
2018-03-06T11:21:33.926Z,56.63
2018-03-06T11:22:33.906Z,56.73
2018-03-06T11:23:33.948Z,56.63
2018-03-06T11:24:33.867Z,57.21
2018-03-06T11:25:33.597Z,56.54
2018-03-06T11:26:33.828Z,56.35
2018-03-06T11:27:33.807Z,56.16
2018-03-06T11:28:33.786Z,56.35
2018-03-06T11:29:33.768Z,56.25
2018-03-06T11:30:33.745Z,56.25
2018-03-06T11:31:34.406Z,56.16
2018-03-06T11:32:34.012Z,55.71
2018-03-06T11:33:33.938Z,55.99
2018-03-06T11:34:34.165Z,55.9
2018-03-06T11:35:33.648Z,55.9
2018-03-06T11:36:33.633Z,55.9
2018-03-06T11:37:33.606Z,55.9
2018-03-06T11:38:33.588Z,55.9
2018-03-06T11:39:33.320Z,55.8
2018-03-06T11:40:33.548Z,55.9
2018-03-06T11:41:33.281Z,55.23
2018-03-06T11:42:33.510Z,54.85
2018-03-06T11:43:33.241Z,54.94
2018-03-06T11:44:33.471Z,55.04
2018-03-06T11:45:33.452Z,55.23
2018-03-06T11:46:33.183Z,55.23
2018-03-06T11:47:33.163Z,55.52
2018-03-06T11:48:33.397Z,55.13
2018-03-06T11:49:33.377Z,55.13
2018-03-06T11:50:33.356Z,55.13
2018-03-06T11:51:33.338Z,55.42
2018-03-06T11:52:33.322Z,55.23
2018-03-06T11:53:33.298Z,55.04
2018-03-06T11:54:33.284Z,54.56
2018-03-06T11:55:33.260Z,54.56
2018-03-06T11:56:33.242Z,54.56
2018-03-06T11:57:33.223Z,54.47
2018-03-06T11:58:32.956Z,54.49
2018-03-06T11:59:33.198Z,54.59
2018-03-06T12:00:33.166Z,54.3
2018-03-06T12:01:33.148Z,54.59
2018-03-06T12:02:33.032Z,54.59
2018-03-06T12:03:33.110Z,54.21
2018-03-06T12:04:32.844Z,54.21
2018-03-06T12:05:33.075Z,54.37
2018-03-06T12:06:33.058Z,54.37
2018-03-06T12:07:33.037Z,53.99
2018-03-06T12:08:33.019Z,54.75
2018-03-06T12:09:33.001Z,54.47
2018-03-06T12:10:32.732Z,54.56
2018-03-06T12:11:32.714Z,54.47
2018-03-06T12:12:32.944Z,54.56
2018-03-06T12:13:32.687Z,54.56
2018-03-06T12:14:32.908Z,54.56
2018-03-06T12:15:32.890Z,54.27
2018-03-06T12:16:32.869Z,54.18
2018-03-06T12:17:32.855Z,54.66
2018-03-06T12:18:32.586Z,54.11
2018-03-06T12:19:32.568Z,54.59
2018-03-06T12:20:33.944Z,54.39
2018-03-06T12:21:32.845Z,54.11
2018-03-06T12:22:32.865Z,54.39
2018-03-06T12:23:32.746Z,54.3
2018-03-06T12:24:33.214Z,54.11
2018-03-06T12:25:33.866Z,54.3
2018-03-06T12:26:34.137Z,54.3
2018-03-06T12:27:33.860Z,54.21
2018-03-06T12:28:32.675Z,54.11
2018-03-06T12:29:33.021Z,54.21
2018-03-06T12:30:32.881Z,54.21
2018-03-06T12:31:33.923Z,54.39
2018-03-06T12:32:32.580Z,53.82
2018-03-06T12:33:32.564Z,53.73
2018-03-06T12:34:32.506Z,53.82
2018-03-06T12:35:32.669Z,53.63
2018-03-06T12:36:32.510Z,54.02
2018-03-06T12:37:32.723Z,54.04
2018-03-06T12:38:32.476Z,54.02
2018-03-06T12:39:32.522Z,53.53
2018-03-06T12:40:32.439Z,53.66
2018-03-06T12:41:32.488Z,53.63
2018-03-06T12:42:32.404Z,53.47
2018-03-06T12:43:32.401Z,53.56
2018-03-06T12:44:33.493Z,53.75
2018-03-06T12:45:33.463Z,53.18
2018-03-06T12:46:32.331Z,52.89
2018-03-06T12:47:33.467Z,53.66
2018-03-06T12:48:32.297Z,53.44
2018-03-06T12:49:32.281Z,53.82
2018-03-06T12:50:32.270Z,53.63
2018-03-06T12:51:32.246Z,54.21
2018-03-06T12:52:32.227Z,53.73
2018-03-06T12:53:32.219Z,53.63
2018-03-06T12:54:32.191Z,53.82
2018-03-06T12:55:32.182Z,53.73
2018-03-06T12:56:32.157Z,53.82